createdAt,value
2022-11-23T00:00:34.118Z,151248.25
2022-11-23T00:03:05.290Z,151231.53
2022-11-23T00:05:35.567Z,151240.53
2022-11-23T00:08:05.898Z,151235.38
2022-11-23T00:10:36.194Z,151207.06
2022-11-23T00:13:06.684Z,151222.50
2022-11-23T00:15:40.144Z,151227.66
2022-11-23T00:18:10.666Z,151235.38
2022-11-23T00:20:42.948Z,151235.38
2022-11-23T00:23:13.102Z,151230.25
2022-11-23T00:25:43.287Z,151231.53
2022-11-23T00:28:13.520Z,151222.50
2022-11-23T00:30:53.188Z,151204.44
2022-11-23T00:33:23.743Z,151219.94
2022-11-23T00:36:02.852Z,151203.19
2022-11-23T00:38:34.876Z,151191.59
2022-11-23T00:41:08.470Z,151199.31
2022-11-23T00:43:38.899Z,151194.16
2022-11-23T00:46:17.846Z,151196.75
2022-11-23T00:48:49.765Z,151201.91
2022-11-23T00:51:22.878Z,151225.09
2022-11-23T00:53:54.262Z,151194.16
2022-11-23T00:56:27.503Z,151189.00
2022-11-23T00:58:59.964Z,151186.44
2022-11-23T01:01:35.699Z,151198.03
2022-11-23T01:04:08.979Z,151160.72
2022-11-23T01:06:41.256Z,151178.72
2022-11-23T01:09:16.159Z,151203.19
2022-11-23T01:11:47.187Z,151191.59
2022-11-23T01:14:17.718Z,151176.16
2022-11-23T01:16:51.408Z,151182.56
2022-11-23T01:19:22.899Z,151178.72
2022-11-23T01:21:53.604Z,151162.00
2022-11-23T01:24:29.558Z,151164.53
2022-11-23T01:26:59.910Z,151173.56
2022-11-23T01:29:31.240Z,151152.97
2022-11-23T01:32:07.335Z,151172.28
2022-11-23T01:34:37.951Z,151159.38
2022-11-23T01:37:08.109Z,151165.84
2022-11-23T01:39:38.166Z,151142.66
2022-11-23T01:42:10.927Z,151162.00
2022-11-23T01:44:44.988Z,151177.44
2022-11-23T01:47:19.116Z,151177.44
2022-11-23T01:49:55.039Z,151158.13
2022-11-23T01:52:28.666Z,151145.22
2022-11-23T01:55:06.911Z,151140.06
2022-11-23T01:57:44.152Z,151133.66
2022-11-23T02:00:16.846Z,151138.78
2022-11-23T02:02:59.831Z,151133.66
2022-11-23T02:05:36.887Z,151116.94
2022-11-23T02:08:10.635Z,151118.19
2022-11-23T02:10:41.546Z,151132.38
2022-11-23T02:13:16.326Z,151119.47
2022-11-23T02:15:47.050Z,151134.91
2022-11-23T02:18:26.160Z,151116.94
2022-11-23T02:20:58.040Z,151127.22
2022-11-23T02:23:41.174Z,151116.94
2022-11-23T02:26:22.210Z,151127.22
2022-11-23T02:28:57.055Z,151115.59
2022-11-23T02:31:27.495Z,151109.19
2022-11-23T02:33:57.779Z,151113.06
2022-11-23T02:36:38.554Z,151127.22
2022-11-23T02:39:12.692Z,151114.34
2022-11-23T02:41:48.365Z,151120.75
2022-11-23T02:44:30.401Z,151127.22
2022-11-23T02:47:01.810Z,151106.63
2022-11-23T02:49:32.428Z,151093.75
2022-11-23T02:52:03.371Z,151109.19
2022-11-23T02:54:34.949Z,151091.16
2022-11-23T02:57:08.983Z,151091.16
2022-11-23T02:59:39.704Z,151101.50
2022-11-23T03:02:10.564Z,151109.19
2022-11-23T03:04:40.804Z,151087.31
2022-11-23T03:07:11.041Z,151083.44
2022-11-23T03:09:42.427Z,151096.34
2022-11-23T03:12:16.727Z,151089.88
2022-11-23T03:14:46.864Z,151092.47
2022-11-23T03:17:17.407Z,151088.59
2022-11-23T03:19:48.826Z,151075.69
2022-11-23T03:22:19.120Z,151074.44
2022-11-23T03:24:50.914Z,151083.44
2022-11-23T03:27:24.148Z,151087.31
2022-11-23T03:29:54.732Z,151059.00
2022-11-23T03:32:25.183Z,151064.13
2022-11-23T03:34:57.721Z,151059.00
2022-11-23T03:37:29.289Z,151066.69
2022-11-23T03:40:00.164Z,151069.28
2022-11-23T03:42:52.139Z,151074.44
2022-11-23T03:45:25.230Z,151070.56
2022-11-23T03:47:55.522Z,151049.97
2022-11-23T03:50:26.598Z,151044.81
2022-11-23T03:52:57.488Z,151048.69
2022-11-23T03:55:27.836Z,151052.56
2022-11-23T03:58:01.034Z,151052.56
2022-11-23T04:00:36.831Z,151074.44
2022-11-23T04:03:07.569Z,151046.09
2022-11-23T04:05:56.919Z,151038.41
2022-11-23T04:09:02.717Z,151042.28
2022-11-23T04:11:53.193Z,151051.25
2022-11-23T04:14:26.229Z,151055.13
2022-11-23T04:16:56.519Z,151031.94
2022-11-23T04:19:27.919Z,151035.81
2022-11-23T04:21:58.615Z,151035.81
2022-11-23T04:24:31.212Z,151044.81
2022-11-23T04:27:03.622Z,151021.66
2022-11-23T04:29:37.450Z,151047.41
2022-11-23T04:32:08.463Z,151044.81
2022-11-23T04:34:41.711Z,151031.94
2022-11-23T04:37:14.896Z,151047.41
2022-11-23T04:39:49.268Z,151046.09
2022-11-23T04:42:26.995Z,151046.09
2022-11-23T04:45:03.449Z,151073.16
2022-11-23T04:47:34.593Z,151030.66
2022-11-23T04:50:10.301Z,151040.94
2022-11-23T04:52:40.675Z,151043.56
2022-11-23T04:55:18.459Z,151038.41
2022-11-23T04:57:56.406Z,151035.81
2022-11-23T05:00:34.780Z,151039.69
2022-11-23T05:03:08.907Z,151034.53
2022-11-23T05:05:42.925Z,151039.69
2022-11-23T05:08:13.794Z,151033.25
2022-11-23T05:10:58.495Z,151047.41
2022-11-23T05:13:29.152Z,151047.41
2022-11-23T05:16:04.181Z,151030.66
2022-11-23T05:18:35.234Z,151040.94
2022-11-23T05:21:05.677Z,151017.81
2022-11-23T05:23:36.171Z,151021.66
2022-11-23T05:26:06.792Z,151031.94
2022-11-23T05:28:40.981Z,151053.84
2022-11-23T05:31:18.834Z,151051.25
2022-11-23T05:33:50.415Z,151037.09
2022-11-23T05:36:27.925Z,151037.09
2022-11-23T05:38:58.297Z,151031.94
2022-11-23T05:41:38.186Z,151029.38
2022-11-23T05:44:14.320Z,151026.78
2022-11-23T05:47:02.242Z,151039.69
2022-11-23T05:49:41.504Z,151040.94
2022-11-23T05:52:12.080Z,151029.38
2022-11-23T05:54:45.747Z,151037.09
2022-11-23T05:57:23.530Z,151038.41
2022-11-23T05:59:56.505Z,151020.38
2022-11-23T06:02:57.182Z,151042.28
2022-11-23T06:05:32.291Z,151057.72
2022-11-23T06:08:13.254Z,151040.94
2022-11-23T06:10:50.959Z,151038.41
2022-11-23T06:13:23.069Z,151031.94
2022-11-23T06:16:01.306Z,151056.41
2022-11-23T06:18:54.250Z,151055.13
2022-11-23T06:21:28.738Z,151048.69
2022-11-23T06:24:02.361Z,151055.13
2022-11-23T06:26:40.366Z,151065.41
2022-11-23T06:29:12.368Z,151065.41
2022-11-23T06:31:45.319Z,151073.16
2022-11-23T06:34:19.935Z,151077.03
2022-11-23T06:36:50.948Z,151096.34
2022-11-23T06:39:22.046Z,151101.50
2022-11-23T06:41:53.051Z,151075.69
2022-11-23T06:44:25.060Z,151083.44
2022-11-23T06:46:57.092Z,151065.41
2022-11-23T06:49:35.244Z,151083.44
2022-11-23T06:52:35.885Z,151070.56
2022-11-23T06:55:09.739Z,151065.41
2022-11-23T06:57:40.405Z,151077.03
2022-11-23T07:00:15.685Z,151079.56
2022-11-23T07:02:54.109Z,151083.44
2022-11-23T07:05:31.330Z,151083.44
2022-11-23T07:08:01.609Z,151083.44
2022-11-23T07:10:33.910Z,151078.31
2022-11-23T07:13:08.440Z,151080.84
2022-11-23T07:15:42.148Z,151098.88
2022-11-23T07:18:15.597Z,151093.75
2022-11-23T07:20:58.054Z,151092.47
2022-11-23T07:23:29.134Z,151111.78
2022-11-23T07:26:03.294Z,151097.63
2022-11-23T07:28:34.567Z,151115.59
2022-11-23T07:31:06.460Z,151119.47
2022-11-23T07:33:36.802Z,151109.19
2022-11-23T07:36:10.694Z,151114.34
2022-11-23T07:38:45.248Z,151105.31
2022-11-23T07:41:17.894Z,151119.47
2022-11-23T07:44:06.005Z,151142.66
2022-11-23T07:46:36.265Z,151128.50
2022-11-23T07:49:06.356Z,151129.78
2022-11-23T07:51:39.540Z,151123.34
2022-11-23T07:54:10.062Z,151134.91
2022-11-23T07:56:41.278Z,151134.91
2022-11-23T07:59:11.501Z,151160.72
2022-11-23T08:01:41.764Z,151137.53
2022-11-23T08:04:11.957Z,151127.22
2022-11-23T08:06:46.045Z,151152.97
2022-11-23T08:09:16.982Z,151160.72
2022-11-23T08:11:47.005Z,151160.72
2022-11-23T08:14:17.149Z,151160.72
2022-11-23T08:16:47.312Z,151143.94
2022-11-23T08:19:17.513Z,151146.53
2022-11-23T08:21:50.176Z,151146.53
2022-11-23T08:24:21.502Z,151177.44
2022-11-23T08:26:52.245Z,151165.84
2022-11-23T08:29:22.600Z,151190.31
2022-11-23T08:31:52.769Z,151189.00
2022-11-23T08:34:22.986Z,151194.16
2022-11-23T08:36:55.925Z,151199.31
2022-11-23T08:39:25.980Z,151195.47
2022-11-23T08:41:56.778Z,151210.91
2022-11-23T08:44:27.134Z,151213.47
2022-11-23T08:46:57.276Z,151191.59
2022-11-23T08:49:27.339Z,151208.31
2022-11-23T08:52:00.495Z,151190.31
2022-11-23T08:54:30.808Z,151199.31
2022-11-23T08:57:01.240Z,151213.47
2022-11-23T08:59:31.309Z,151223.78
2022-11-23T09:02:01.995Z,151212.19
2022-11-23T09:04:32.706Z,151222.50
2022-11-23T09:07:06.350Z,151230.25
2022-11-23T09:09:36.668Z,151212.19
2022-11-23T09:12:07.497Z,151221.22
2022-11-23T09:14:38.022Z,151230.25
2022-11-23T09:17:08.622Z,151231.53
2022-11-23T09:19:38.684Z,151237.94
2022-11-23T09:22:11.974Z,151259.88
2022-11-23T09:24:43.353Z,151248.25
2022-11-23T09:27:13.643Z,151240.53
2022-11-23T09:29:43.872Z,151257.25
2022-11-23T09:32:14.137Z,151252.13
2022-11-23T09:34:45.599Z,151267.56
2022-11-23T09:37:18.705Z,151244.41
2022-11-23T09:39:48.789Z,151259.88
2022-11-23T09:42:45.918Z,151254.72
2022-11-23T09:45:26.018Z,151268.91
2022-11-23T09:48:20.715Z,151274.03
2022-11-23T09:50:53.254Z,151295.91
2022-11-23T09:53:31.481Z,151259.88
2022-11-23T09:56:01.754Z,151240.53
2022-11-23T09:58:38.204Z,151280.47
2022-11-23T10:01:15.195Z,151301.06
2022-11-23T10:03:49.375Z,151294.66
2022-11-23T10:06:24.247Z,151279.19
2022-11-23T10:09:17.179Z,151294.66
2022-11-23T10:12:05.398Z,151302.34
2022-11-23T10:14:56.849Z,151298.50
2022-11-23T10:17:38.919Z,151293.38
2022-11-23T10:20:25.422Z,151303.66
2022-11-23T10:23:01.741Z,151302.34
2022-11-23T10:25:41.436Z,151310.09
2022-11-23T10:28:17.414Z,151321.66
2022-11-23T10:30:51.095Z,151320.41
2022-11-23T10:33:29.789Z,151310.09
2022-11-23T10:36:00.472Z,151317.84
2022-11-23T10:38:32.944Z,151321.66
2022-11-23T10:41:10.746Z,151333.28
2022-11-23T10:43:48.600Z,151325.53
2022-11-23T10:46:31.913Z,151328.16
2022-11-23T10:49:20.527Z,151333.28
2022-11-23T10:51:57.392Z,151335.84
2022-11-23T10:54:38.902Z,151338.44
2022-11-23T10:57:34.168Z,151339.72
2022-11-23T11:00:09.641Z,151351.31
2022-11-23T11:02:43.560Z,151324.28
2022-11-23T11:05:53.126Z,151338.44
2022-11-23T11:08:20.463Z,151350.03
2022-11-23T11:10:53.409Z,151350.03
2022-11-23T11:13:33.283Z,151361.59
2022-11-23T11:16:05.097Z,151361.59
2022-11-23T11:18:37.951Z,151343.59
2022-11-23T11:21:10.241Z,151338.44
2022-11-23T11:23:44.539Z,151348.75
2022-11-23T11:26:23.142Z,151361.59
2022-11-23T11:28:57.608Z,151347.47
2022-11-23T11:31:41.422Z,151344.88
2022-11-23T11:34:23.216Z,151351.31
2022-11-23T11:36:59.103Z,151351.31
2022-11-23T11:39:35.535Z,151342.31
2022-11-23T11:42:11.012Z,151330.69
2022-11-23T11:44:45.873Z,151361.59
2022-11-23T11:47:29.362Z,151353.91
2022-11-23T11:50:03.394Z,151346.16
2022-11-23T11:52:39.356Z,151326.81
2022-11-23T11:55:16.524Z,151341.00
2022-11-23T11:57:50.515Z,151356.44
2022-11-23T12:00:25.320Z,151348.75
2022-11-23T12:03:07.798Z,151346.16
2022-11-23T12:05:45.122Z,151338.44
2022-11-23T12:08:21.296Z,151341.00
2022-11-23T12:10:53.868Z,151351.31
2022-11-23T12:13:25.675Z,151350.03
2022-11-23T12:16:10.043Z,151330.69
2022-11-23T12:19:04.203Z,151339.72
2022-11-23T12:22:01.616Z,151346.16
2022-11-23T12:24:46.184Z,151351.31
2022-11-23T12:27:26.403Z,151353.91
2022-11-23T12:30:07.083Z,151347.47
2022-11-23T12:32:53.468Z,151357.78
2022-11-23T12:35:42.813Z,151370.63
2022-11-23T12:38:24.168Z,151356.44
2022-11-23T12:41:08.517Z,151365.47
2022-11-23T12:43:53.353Z,151348.75
2022-11-23T12:46:30.333Z,151369.34
2022-11-23T12:49:21.579Z,151347.47
2022-11-23T12:52:02.168Z,151362.94
2022-11-23T12:54:55.023Z,151351.31
2022-11-23T12:57:31.858Z,151384.81
2022-11-23T13:00:06.185Z,151371.94
2022-11-23T13:03:08.242Z,151361.59
2022-11-23T13:06:10.945Z,151356.44
2022-11-23T13:09:12.948Z,151361.59
2022-11-23T13:12:00.587Z,151375.78
2022-11-23T13:14:42.133Z,151388.69
2022-11-23T13:17:24.056Z,151395.13
2022-11-23T13:20:23.937Z,151386.09
2022-11-23T13:23:05.000Z,151371.94
2022-11-23T13:25:40.721Z,151392.56
2022-11-23T13:28:34.426Z,151404.13
2022-11-23T13:34:54.240Z,151399.00
2022-11-23T13:37:56.085Z,151420.88
2022-11-23T13:40:40.911Z,151392.56
2022-11-23T13:43:34.530Z,151400.25
2022-11-23T13:46:29.620Z,151402.88
2022-11-23T13:49:01.813Z,151405.41
2022-11-23T13:51:33.805Z,151402.88
2022-11-23T13:54:06.733Z,151395.13
2022-11-23T13:56:44.624Z,151391.25
2022-11-23T13:59:31.912Z,151397.72
2022-11-23T14:02:26.879Z,151393.84
2022-11-23T14:05:29.407Z,151397.72
2022-11-23T14:08:00.726Z,151400.25
2022-11-23T14:10:34.544Z,151400.25
2022-11-23T14:13:11.602Z,151411.91
2022-11-23T14:15:44.750Z,151418.31
2022-11-23T14:18:40.299Z,151432.50
2022-11-23T14:21:25.509Z,151437.66
2022-11-23T14:24:38.448Z,151428.63
2022-11-23T14:27:47.292Z,151432.50
2022-11-23T14:30:46.276Z,151440.22
2022-11-23T14:33:30.504Z,151468.56
2022-11-23T14:36:13.674Z,151436.38
2022-11-23T14:39:19.714Z,151433.78
2022-11-23T14:42:03.433Z,151435.06
2022-11-23T14:44:38.802Z,151438.94
2022-11-23T14:47:13.743Z,151446.69
2022-11-23T14:49:53.009Z,151444.09
2022-11-23T14:52:26.286Z,151453.13
2022-11-23T14:54:58.117Z,151438.94
2022-11-23T14:57:32.476Z,151426.06
2022-11-23T15:00:10.154Z,151441.53
2022-11-23T15:02:45.949Z,151429.91
2022-11-23T15:05:24.202Z,151444.09
2022-11-23T15:07:59.044Z,151444.09
2022-11-23T15:10:42.277Z,151427.34
2022-11-23T15:13:24.135Z,151433.78
2022-11-23T15:15:56.431Z,151431.22
2022-11-23T15:18:36.752Z,151411.91
2022-11-23T15:21:10.143Z,151400.25
2022-11-23T15:23:44.496Z,151410.56
2022-11-23T15:26:42.101Z,151426.06
2022-11-23T15:29:08.079Z,151400.25
2022-11-23T15:31:46.712Z,151402.88
2022-11-23T15:34:47.413Z,151402.88
2022-11-23T15:37:27.020Z,151402.88
2022-11-23T15:40:08.231Z,151406.75
2022-11-23T15:42:43.348Z,151389.97
2022-11-23T15:46:01.840Z,151397.72
2022-11-23T15:48:40.821Z,151399.00
2022-11-23T15:51:35.958Z,151404.13
2022-11-23T15:54:11.068Z,151402.88
2022-11-23T15:56:42.304Z,151419.59
2022-11-23T15:59:33.103Z,151413.16
2022-11-23T16:02:04.452Z,151404.13
2022-11-23T16:04:44.265Z,151426.06
2022-11-23T16:07:24.641Z,151423.47
2022-11-23T16:10:10.194Z,151424.75
2022-11-23T16:12:50.729Z,151428.63
2022-11-23T16:15:44.523Z,151420.88
2022-11-23T16:18:28.013Z,151423.47
2022-11-23T16:21:00.922Z,151410.56
2022-11-23T16:23:45.115Z,151414.44
2022-11-23T16:26:16.309Z,151413.16
2022-11-23T16:28:53.293Z,151417.06
2022-11-23T16:31:31.990Z,151410.56
2022-11-23T16:34:02.155Z,151414.44
2022-11-23T16:36:32.616Z,151419.59
2022-11-23T16:39:06.083Z,151399.00
2022-11-23T16:41:36.482Z,151411.91
2022-11-23T16:44:07.463Z,151415.72
2022-11-23T16:46:43.087Z,151411.91
2022-11-23T16:49:19.536Z,151400.25
2022-11-23T16:51:57.015Z,151408.03
2022-11-23T16:54:30.133Z,151404.13
2022-11-23T16:57:00.360Z,151413.16
2022-11-23T16:59:30.726Z,151406.75
2022-11-23T17:02:02.124Z,151401.59
2022-11-23T17:04:32.775Z,151406.75
2022-11-23T17:07:03.555Z,151395.13
2022-11-23T17:09:36.795Z,151384.81
2022-11-23T17:12:10.955Z,151405.41
2022-11-23T17:14:43.082Z,151384.81
2022-11-23T17:17:16.428Z,151379.66
2022-11-23T17:19:49.056Z,151389.97
2022-11-23T17:22:20.239Z,151384.81
2022-11-23T17:24:54.737Z,151397.72
2022-11-23T17:27:27.535Z,151388.69
2022-11-23T17:30:00.752Z,151386.09
2022-11-23T17:32:33.790Z,151371.94
2022-11-23T17:35:05.248Z,151378.38
2022-11-23T17:37:35.648Z,151375.78
2022-11-23T17:40:15.952Z,151380.94
2022-11-23T17:42:46.698Z,151384.81
2022-11-23T17:45:26.432Z,151362.94
2022-11-23T17:48:02.911Z,151365.47
2022-11-23T17:50:33.911Z,151368.06
2022-11-23T17:53:04.061Z,151366.75
2022-11-23T17:55:37.259Z,151388.69
2022-11-23T17:58:07.601Z,151375.78
2022-11-23T18:00:38.974Z,151359.06
2022-11-23T18:03:09.135Z,151374.50
2022-11-23T18:05:39.687Z,151371.94
2022-11-23T18:08:09.769Z,151361.59
2022-11-23T18:10:42.763Z,151348.75
2022-11-23T18:13:13.077Z,151352.63
2022-11-23T18:15:43.587Z,151346.16
2022-11-23T18:18:16.928Z,151343.59
2022-11-23T18:20:46.960Z,151361.59
2022-11-23T18:23:17.142Z,151370.63
2022-11-23T18:26:00.216Z,151369.34
2022-11-23T18:28:30.951Z,151357.78
2022-11-23T18:31:01.901Z,151366.75
2022-11-23T18:33:32.081Z,151355.19
2022-11-23T18:36:05.582Z,151357.78
2022-11-23T18:38:35.956Z,151357.78
2022-11-23T18:41:09.846Z,151353.91
2022-11-23T18:43:39.680Z,151361.59
2022-11-23T18:46:12.004Z,151355.19
2022-11-23T18:48:42.547Z,151351.31
2022-11-23T18:51:13.974Z,151352.63
2022-11-23T18:53:47.591Z,151361.59
2022-11-23T18:56:20.962Z,151356.44
2022-11-23T18:58:51.446Z,151355.19
2022-11-23T19:01:24.179Z,151342.31
2022-11-23T19:03:56.625Z,151348.75
2022-11-23T19:06:27.238Z,151359.06
2022-11-23T19:09:01.936Z,151355.19
2022-11-23T19:11:34.811Z,151339.72
2022-11-23T19:14:05.452Z,151351.31
2022-11-23T19:16:35.782Z,151353.91
2022-11-23T19:19:07.891Z,151350.03
2022-11-23T19:21:41.936Z,151338.44
2022-11-23T19:24:12.641Z,151346.16
2022-11-23T19:26:45.664Z,151342.31
2022-11-23T19:29:16.625Z,151333.28
2022-11-23T19:31:54.802Z,151348.75
2022-11-23T19:34:28.396Z,151347.47
2022-11-23T19:37:08.290Z,151347.47
2022-11-23T19:39:48.788Z,151353.91
2022-11-23T19:42:26.936Z,151344.88
2022-11-23T19:45:14.611Z,151353.91
2022-11-23T19:47:54.568Z,151344.88
2022-11-23T19:50:30.938Z,151333.28
2022-11-23T19:53:12.214Z,151351.31
2022-11-23T19:55:46.365Z,151364.19
2022-11-23T19:58:25.776Z,151342.31
2022-11-23T20:01:21.776Z,151357.78
2022-11-23T20:04:08.266Z,151357.78
2022-11-23T20:06:55.867Z,151360.31
2022-11-23T20:09:32.893Z,151365.47
2022-11-23T20:12:12.279Z,151366.75
2022-11-23T20:15:05.908Z,151375.78
2022-11-23T20:17:46.138Z,151370.63
2022-11-23T20:20:27.995Z,151360.31
2022-11-23T20:23:00.461Z,151353.91
2022-11-23T20:25:42.910Z,151364.19
2022-11-23T20:28:21.415Z,151356.44
2022-11-23T20:31:15.670Z,151369.34
2022-11-23T20:33:51.176Z,151364.19
2022-11-23T20:36:34.090Z,151369.34
2022-11-23T20:39:12.368Z,151359.06
2022-11-23T20:41:50.222Z,151359.06
2022-11-23T20:44:34.127Z,151369.34
2022-11-23T20:47:31.742Z,151365.47
2022-11-23T20:50:08.363Z,151365.47
2022-11-23T20:52:45.199Z,151375.78
2022-11-23T20:55:24.543Z,151365.47
2022-11-23T20:58:09.200Z,151370.63
2022-11-23T21:01:03.181Z,151375.78
2022-11-23T21:03:57.597Z,151373.22
2022-11-23T21:06:39.302Z,151366.75
2022-11-23T21:09:25.410Z,151375.78
2022-11-23T21:12:12.947Z,151380.94
2022-11-23T21:14:53.376Z,151368.06
2022-11-23T21:17:31.674Z,151366.75
2022-11-23T21:20:13.026Z,151377.09
2022-11-23T21:22:45.794Z,151379.66
2022-11-23T21:25:31.750Z,151374.50
2022-11-23T21:28:13.868Z,151369.34
2022-11-23T21:30:52.000Z,151369.34
2022-11-23T21:33:24.357Z,151379.66
2022-11-23T21:35:59.727Z,151378.38
2022-11-23T21:38:35.471Z,151379.66
2022-11-23T21:41:06.299Z,151384.81
2022-11-23T21:43:36.714Z,151371.94
2022-11-23T21:46:08.910Z,151371.94
2022-11-23T21:48:42.288Z,151374.50
2022-11-23T21:51:17.971Z,151373.22
2022-11-23T21:53:48.345Z,151383.53
2022-11-23T21:56:23.607Z,151370.63
2022-11-23T21:58:56.167Z,151371.94
2022-11-23T22:01:30.847Z,151374.50
2022-11-23T22:04:03.319Z,151373.22
2022-11-23T22:06:36.008Z,151355.19
2022-11-23T22:09:08.024Z,151368.06
2022-11-23T22:11:42.442Z,151343.59
2022-11-23T22:14:15.010Z,151355.19
2022-11-23T22:16:50.165Z,151356.44
2022-11-23T22:19:20.829Z,151355.19
2022-11-23T22:21:56.847Z,151365.47
2022-11-23T22:24:26.921Z,151361.59
2022-11-23T22:27:01.990Z,151359.06
2022-11-23T22:29:32.206Z,151351.31
2022-11-23T22:32:02.332Z,151351.31
2022-11-23T22:34:35.550Z,151359.06
2022-11-23T22:37:10.774Z,151346.16
2022-11-23T22:39:41.369Z,151356.44
2022-11-23T22:42:11.412Z,151355.19
2022-11-23T22:44:41.979Z,151357.78
2022-11-23T22:47:12.065Z,151343.59
2022-11-23T22:49:42.422Z,151347.47
2022-11-23T22:52:15.337Z,151366.75
2022-11-23T22:54:45.518Z,151365.47
2022-11-23T22:57:15.733Z,151353.91
2022-11-23T22:59:45.799Z,151338.44
2022-11-23T23:02:16.014Z,151341.00
2022-11-23T23:04:57.923Z,151346.16
2022-11-23T23:07:39.596Z,151344.88
2022-11-23T23:10:26.849Z,151333.28
2022-11-23T23:13:07.475Z,151335.84
2022-11-23T23:15:42.103Z,151337.13
2022-11-23T23:18:14.210Z,151338.44
2022-11-23T23:20:50.656Z,151338.44
2022-11-23T23:23:31.722Z,151344.88
2022-11-23T23:26:11.480Z,151353.91
2022-11-23T23:28:46.590Z,151346.16
2022-11-23T23:31:22.967Z,151339.72
2022-11-23T23:34:03.399Z,151348.75
2022-11-23T23:36:41.992Z,151331.97
2022-11-23T23:39:30.855Z,151334.56
2022-11-23T23:42:09.318Z,151341.00
2022-11-23T23:44:41.010Z,151341.00
2022-11-23T23:47:23.895Z,151328.16
2022-11-23T23:49:54.345Z,151334.56
2022-11-23T23:52:28.426Z,151319.13
2022-11-23T23:55:18.332Z,151319.13
2022-11-23T23:58:00.325Z,151335.84
